Time;durP1;ratioP1;P1;durP2;ratioP2;P2;SDS_P1;SDS_P2;PMS_P1;PMS_P2;Temp;Humidity;BMP_temperature;BMP_pressure;BME280_temperature;BME280_humidity;BME280_pressure;Samples;Min_cycle;Max_cycle;Signal;HPM_P1;HPM_P2
2023/09/15 00:01:00;;;;;;;9.57;4.23;;;13.40;99.90;;;;;;5074151;28;20457;-72
2023/09/15 00:03:26;;;;;;;9.03;4.27;;;13.50;99.90;;;;;;5074277;28;20045;-72
2023/09/15 00:05:52;;;;;;;9.70;4.37;;;13.40;99.90;;;;;;5072894;28;20287;-73
2023/09/15 00:08:17;;;;;;;17.57;5.37;;;13.40;99.90;;;;;;5074341;28;20056;-73
2023/09/15 00:10:44;;;;;;;8.93;4.60;;;13.40;99.90;;;;;;5072742;28;20131;-72
2023/09/15 00:13:10;;;;;;;11.37;4.30;;;13.40;99.90;;;;;;5072978;28;20048;-72
2023/09/15 00:15:36;;;;;;;8.57;3.77;;;13.40;99.90;;;;;;5056266;28;20416;-72
2023/09/15 00:18:02;;;;;;;8.23;4.47;;;13.40;99.90;;;;;;5073797;28;20048;-73
2023/09/15 00:20:28;;;;;;;11.43;4.17;;;13.40;99.90;;;;;;5072938;28;20503;-73
2023/09/15 00:22:55;;;;;;;12.20;4.40;;;13.30;99.90;;;;;;5073690;28;20278;-73
2023/09/15 00:25:23;;;;;;;9.33;4.47;;;13.30;99.90;;;;;;5072860;28;20044;-73
2023/09/15 00:27:53;;;;;;;10.33;4.43;;;13.20;99.90;;;;;;5072571;28;20287;-73
2023/09/15 00:30:21;;;;;;;10.73;4.60;;;13.20;99.90;;;;;;5073490;28;20271;-73
2023/09/15 00:32:48;;;;;;;11.97;4.70;;;13.20;99.90;;;;;;5072334;28;20325;-72
2023/09/15 00:35:23;;;;;;;8.80;4.37;;;13.10;99.90;;;;;;5074045;28;20341;-72
2023/09/15 00:37:50;;;;;;;9.48;4.38;;;13.10;99.90;;;;;;5072283;28;20639;-73
2023/09/15 00:40:20;;;;;;;10.50;4.37;;;13.10;99.90;;;;;;5073582;28;20036;-72
2023/09/15 00:42:48;;;;;;;8.80;4.30;;;13.00;99.90;;;;;;5072192;28;20275;-73
2023/09/15 00:45:15;;;;;;;7.70;3.90;;;13.10;99.90;;;;;;5073727;28;20283;-72
2023/09/15 00:47:47;;;;;;;6.90;3.53;;;13.10;99.90;;;;;;5072288;28;20295;-73
2023/09/15 00:50:16;;;;;;;11.80;4.57;;;13.10;99.90;;;;;;5072240;28;20283;-72
2023/09/15 00:52:51;;;;;;;10.47;4.50;;;13.00;99.90;;;;;;5072419;28;20294;-72
2023/09/15 00:55:21;;;;;;;9.17;4.67;;;13.00;99.90;;;;;;5072488;28;20766;-72
2023/09/15 00:57:51;;;;;;;9.43;4.43;;;13.00;99.90;;;;;;5073200;28;20369;-73
2023/09/15 01:00:21;;;;;;;15.60;5.03;;;13.00;99.90;;;;;;5055449;28;20295;-72
2023/09/15 01:02:48;;;;;;;9.53;5.03;;;12.90;99.90;;;;;;5071251;28;20412;-73
2023/09/15 01:05:22;;;;;;;11.13;5.33;;;12.90;99.90;;;;;;5072236;28;20322;-73
2023/09/15 01:07:50;;;;;;;12.20;5.00;;;12.80;99.90;;;;;;5071969;28;20782;-73
2023/09/15 01:10:15;;;;;;;9.63;5.30;;;12.80;99.90;;;;;;5072800;28;20758;-73
2023/09/15 01:12:44;;;;;;;8.43;5.10;;;12.90;99.90;;;;;;5073087;28;20286;-72
2023/09/15 01:15:10;;;;;;;10.53;4.33;;;12.80;99.90;;;;;;5072795;28;20102;-72
2023/09/15 01:17:53;;;;;;;11.03;5.03;;;12.80;99.90;;;;;;5073104;28;20619;-73
2023/09/15 01:20:57;;;;;;;10.43;5.20;;;12.80;99.90;;;;;;5073271;28;20076;-72
2023/09/15 01:23:47;;;;;;;9.70;5.40;;;12.80;99.90;;;;;;5071858;28;20287;-72
2023/09/15 01:26:46;;;;;;;10.17;4.50;;;12.70;99.90;;;;;;5073022;28;20279;-72
2023/09/15 01:29:49;;;;;;;11.17;4.80;;;12.70;99.90;;;;;;5072650;28;20289;-73
2023/09/15 01:32:18;;;;;;;11.70;4.60;;;12.70;99.90;;;;;;5071763;28;20827;-73
2023/09/15 01:34:52;;;;;;;11.17;5.00;;;12.70;99.90;;;;;;5072841;28;20283;-72
2023/09/15 01:37:20;;;;;;;9.80;4.70;;;12.70;99.90;;;;;;5073144;28;20289;-72
2023/09/15 01:39:46;;;;;;;9.90;4.43;;;12.60;99.90;;;;;;5072719;28;20270;-72
2023/09/15 01:42:12;;;;;;;10.23;4.33;;;12.60;99.90;;;;;;5072461;28;20278;-72
2023/09/15 01:44:38;;;;;;;13.03;5.03;;;12.60;99.90;;;;;;5055003;28;20770;-72
2023/09/15 01:47:08;;;;;;;10.03;4.60;;;12.50;99.90;;;;;;5072038;28;20286;-72
2023/09/15 01:49:34;;;;;;;9.93;4.30;;;12.50;99.90;;;;;;5072685;28;20477;-72
2023/09/15 01:52:02;;;;;;;9.57;5.50;;;12.50;99.90;;;;;;5072406;28;20287;-72
2023/09/15 01:54:27;;;;;;;9.93;4.80;;;12.40;99.90;;;;;;5072635;28;20325;-72
2023/09/15 01:56:53;;;;;;;11.37;5.40;;;12.40;99.90;;;;;;5054720;28;20779;-73
2023/09/15 01:59:19;;;;;;;13.77;5.00;;;12.40;99.90;;;;;;5071336;28;20115;-72
2023/09/15 02:01:45;;;;;;;12.13;5.13;;;12.30;99.90;;;;;;5070909;28;20044;-72
2023/09/15 02:04:11;;;;;;;13.00;4.63;;;12.40;99.90;;;;;;5071237;28;20052;-72
2023/09/15 02:06:36;;;;;;;8.03;4.67;;;12.30;99.90;;;;;;5071644;28;20056;-72
2023/09/15 02:09:06;;;;;;;8.43;4.67;;;12.30;99.90;;;;;;5070955;28;20500;-72
2023/09/15 02:11:31;;;;;;;9.60;4.43;;;12.20;99.90;;;;;;5071487;28;20056;-72
2023/09/15 02:13:57;;;;;;;14.17;4.33;;;12.20;99.90;;;;;;5057773;28;20343;-72
2023/09/15 02:16:24;;;;;;;7.73;4.20;;;12.20;99.90;;;;;;5075271;28;20048;-72
2023/09/15 02:18:50;;;;;;;12.10;4.93;;;12.30;99.90;;;;;;5076433;28;20123;-72
2023/09/15 02:21:16;;;;;;;10.13;4.33;;;12.30;99.90;;;;;;5075984;28;20383;-72
2023/09/15 02:23:42;;;;;;;9.53;4.60;;;12.20;99.90;;;;;;5076322;28;20330;-72
2023/09/15 02:26:08;;;;;;;8.00;4.00;;;12.20;99.90;;;;;;5075746;28;20044;-72
2023/09/15 02:28:34;;;;;;;8.63;4.20;;;12.20;99.90;;;;;;5076243;28;20049;-72
2023/09/15 02:31:05;;;;;;;13.00;4.50;;;12.20;99.90;;;;;;5075995;28;20354;-73
2023/09/15 02:33:32;;;;;;;7.33;4.50;;;12.20;99.90;;;;;;5075152;28;20048;-72
2023/09/15 02:35:58;;;;;;;10.90;4.73;;;12.10;99.90;;;;;;5074761;28;20376;-72
2023/09/15 02:38:24;;;;;;;10.83;4.50;;;12.10;99.90;;;;;;5075927;28;20274;-72
2023/09/15 02:40:49;;;;;;;9.27;4.20;;;12.10;99.90;;;;;;5058190;28;20711;-72
2023/09/15 02:43:15;;;;;;;8.37;4.60;;;12.10;99.90;;;;;;5074152;28;20048;-73
2023/09/15 02:45:41;;;;;;;8.53;4.57;;;12.10;99.90;;;;;;5076041;28;20045;-72
2023/09/15 02:48:06;;;;;;;10.87;4.60;;;12.10;99.90;;;;;;5074170;28;20408;-73
2023/09/15 02:50:32;;;;;;;10.10;4.63;;;12.10;99.90;;;;;;5074665;28;20059;-73
2023/09/15 02:52:59;;;;;;;11.03;4.73;;;12.00;99.90;;;;;;5074500;28;20049;-74
2023/09/15 02:55:25;;;;;;;9.57;4.60;;;12.00;99.90;;;;;;5058034;28;20055;-72
2023/09/15 02:57:54;;;;;;;9.73;4.50;;;12.00;99.90;;;;;;5075778;28;20282;-72
2023/09/15 03:00:20;;;;;;;11.83;4.60;;;12.00;99.90;;;;;;5075286;28;20041;-72
2023/09/15 03:02:49;;;;;;;9.87;4.23;;;11.90;99.90;;;;;;5075509;28;20322;-72
2023/09/15 03:05:15;;;;;;;7.10;4.10;;;11.90;99.90;;;;;;5074260;28;20344;-73
2023/09/15 03:07:42;;;;;;;11.43;4.90;;;12.00;99.90;;;;;;5075749;28;20278;-72
2023/09/15 03:10:09;;;;;;;8.63;4.23;;;12.00;99.90;;;;;;5074990;28;20271;-73
2023/09/15 03:12:38;;;;;;;9.53;4.03;;;11.90;99.90;;;;;;5074587;28;20777;-72
2023/09/15 03:15:06;;;;;;;9.07;4.50;;;11.90;99.90;;;;;;5074051;28;20397;-72
2023/09/15 03:17:39;;;;;;;9.77;4.23;;;11.80;99.90;;;;;;5074253;28;20425;-72
2023/09/15 03:20:16;;;;;;;11.90;4.40;;;11.80;99.90;;;;;;5074831;28;20298;-72
2023/09/15 03:22:43;;;;;;;10.63;4.43;;;11.80;99.90;;;;;;5075446;28;20282;-72
2023/09/15 03:25:09;;;;;;;12.53;5.00;;;11.70;99.90;;;;;;5073985;28;20412;-72
2023/09/15 03:27:34;;;;;;;11.63;4.60;;;11.70;99.90;;;;;;5075068;28;20275;-72
2023/09/15 03:30:01;;;;;;;11.00;4.40;;;11.70;99.90;;;;;;5073811;28;20275;-72
2023/09/15 03:32:26;;;;;;;10.57;4.60;;;11.70;99.90;;;;;;5074858;28;20135;-72
2023/09/15 03:34:52;;;;;;;9.50;5.27;;;11.70;99.90;;;;;;5075045;28;20362;-72
2023/09/15 03:37:18;;;;;;;10.53;4.43;;;11.70;99.90;;;;;;5073536;28;20080;-72
2023/09/15 03:39:43;;;;;;;13.60;4.70;;;11.70;99.90;;;;;;5073947;28;20053;-72
2023/09/15 03:42:09;;;;;;;11.17;4.80;;;11.60;99.90;;;;;;5074341;28;20511;-72
2023/09/15 03:44:35;;;;;;;9.97;4.23;;;11.60;99.90;;;;;;5074613;28;20086;-72
2023/09/15 03:47:00;;;;;;;11.47;4.10;;;11.60;99.90;;;;;;5073311;28;20614;-72
2023/09/15 03:49:26;;;;;;;8.97;4.87;;;11.60;99.90;;;;;;5056512;28;20063;-72
2023/09/15 03:51:52;;;;;;;8.93;3.97;;;11.60;99.90;;;;;;5074825;28;20040;-72
2023/09/15 03:54:18;;;;;;;8.90;4.53;;;11.60;99.90;;;;;;5074545;28;20048;-72
2023/09/15 03:56:44;;;;;;;11.07;4.83;;;11.60;99.90;;;;;;5074684;28;20053;-72
2023/09/15 03:59:10;;;;;;;9.40;4.80;;;11.60;99.90;;;;;;5073269;28;20290;-72
2023/09/15 04:01:35;;;;;;;9.13;4.23;;;11.50;99.90;;;;;;5073203;28;20033;-72
2023/09/15 04:04:02;;;;;;;10.23;4.67;;;11.50;99.90;;;;;;5074119;28;20051;-72
2023/09/15 04:06:28;;;;;;;11.77;5.30;;;11.50;99.90;;;;;;5074052;28;20045;-72
2023/09/15 04:08:55;;;;;;;8.50;4.83;;;11.50;99.90;;;;;;5074477;28;20289;-72
2023/09/15 04:11:20;;;;;;;13.17;5.20;;;11.50;99.90;;;;;;5072996;28;20048;-72
2023/09/15 04:13:46;;;;;;;12.17;5.57;;;11.50;99.90;;;;;;5056849;28;20286;-72
2023/09/15 04:16:12;;;;;;;9.90;4.60;;;11.50;99.90;;;;;;5074040;28;20427;-73
2023/09/15 04:18:37;;;;;;;11.50;4.47;;;11.50;99.90;;;;;;5074182;28;20415;-72
2023/09/15 04:21:04;;;;;;;14.00;4.57;;;11.50;99.90;;;;;;5074074;28;20048;-72
2023/09/15 04:23:30;;;;;;;7.97;4.33;;;11.50;99.90;;;;;;5072636;28;20041;-72
2023/09/15 04:25:56;;;;;;;10.73;4.53;;;11.40;99.90;;;;;;5072992;28;20477;-72
2023/09/15 04:28:22;;;;;;;7.80;4.67;;;11.50;99.90;;;;;;5056065;28;20294;-72
2023/09/15 04:30:48;;;;;;;9.70;4.33;;;11.40;99.90;;;;;;5073963;28;20037;-72
2023/09/15 04:33:14;;;;;;;10.07;5.00;;;11.50;99.90;;;;;;5073641;28;20098;-72
2023/09/15 04:35:40;;;;;;;8.47;4.47;;;11.50;99.90;;;;;;5073873;28;20282;-72
2023/09/15 04:38:07;;;;;;;10.17;4.57;;;11.50;99.90;;;;;;5073805;28;20045;-72
2023/09/15 04:40:33;;;;;;;13.03;4.67;;;11.50;99.90;;;;;;5072363;28;20461;-73
2023/09/15 04:42:59;;;;;;;11.27;5.03;;;11.40;99.90;;;;;;5073891;28;20286;-72
2023/09/15 04:45:25;;;;;;;11.10;4.83;;;11.40;99.90;;;;;;5073121;28;20275;-73
2023/09/15 04:47:51;;;;;;;8.93;4.03;;;11.40;99.90;;;;;;5073119;28;20135;-73
2023/09/15 04:50:17;;;;;;;8.90;4.50;;;11.40;99.90;;;;;;5072107;28;20417;-73
2023/09/15 04:52:43;;;;;;;9.53;4.40;;;11.30;99.90;;;;;;5073873;28;20044;-73
2023/09/15 04:55:08;;;;;;;12.60;4.90;;;11.30;99.90;;;;;;5072595;28;20493;-73
2023/09/15 04:57:34;;;;;;;11.03;4.63;;;11.30;99.90;;;;;;5073159;28;20485;-73
2023/09/15 05:00:01;;;;;;;12.90;4.63;;;11.30;99.90;;;;;;5073442;28;20477;-73
2023/09/15 05:02:30;;;;;;;9.20;3.97;;;11.30;99.90;;;;;;5072885;28;20056;-73
2023/09/15 05:04:56;;;;;;;10.63;4.60;;;11.30;99.90;;;;;;5072057;28;20739;-73
2023/09/15 05:07:21;;;;;;;12.17;4.43;;;11.40;99.90;;;;;;5073254;28;20279;-73
2023/09/15 05:09:47;;;;;;;11.57;4.47;;;11.30;99.90;;;;;;5072445;28;20427;-73
2023/09/15 05:12:16;;;;;;;8.73;4.50;;;11.40;99.90;;;;;;5072207;28;20098;-73
2023/09/15 05:14:43;;;;;;;12.17;4.90;;;11.30;99.90;;;;;;5073035;28;20485;-72
2023/09/15 05:17:08;;;;;;;10.80;4.60;;;11.30;99.90;;;;;;5073187;28;20622;-72
2023/09/15 05:19:34;;;;;;;9.47;4.27;;;11.30;99.90;;;;;;5072746;28;20374;-72
2023/09/15 05:22:00;;;;;;;11.37;4.87;;;11.20;99.90;;;;;;5072930;28;20059;-72
2023/09/15 05:24:25;;;;;;;13.13;4.80;;;11.20;99.90;;;;;;5072797;28;20044;-72
2023/09/15 05:26:51;;;;;;;9.40;4.57;;;11.30;99.90;;;;;;5055235;28;20380;-73
2023/09/15 05:29:17;;;;;;;7.40;4.37;;;11.30;99.90;;;;;;5072563;28;20052;-74
2023/09/15 05:31:42;;;;;;;11.10;4.37;;;11.30;99.90;;;;;;5055386;28;20135;-72
2023/09/15 05:34:09;;;;;;;12.17;4.80;;;11.30;99.90;;;;;;5072909;28;20049;-72
2023/09/15 05:36:34;;;;;;;9.10;4.53;;;11.30;99.90;;;;;;5072536;28;20113;-72
2023/09/15 05:39:00;;;;;;;9.33;4.60;;;11.30;99.90;;;;;;5073020;28;20760;-73
2023/09/15 05:41:26;;;;;;;13.20;5.13;;;11.30;99.90;;;;;;5072357;28;20044;-73
2023/09/15 05:43:51;;;;;;;12.07;4.60;;;11.30;99.90;;;;;;5071216;28;20052;-72
2023/09/15 05:46:18;;;;;;;10.00;4.40;;;11.30;99.90;;;;;;5072650;28;20083;-72
2023/09/15 05:48:43;;;;;;;12.43;4.87;;;11.30;99.90;;;;;;5072582;28;20049;-72
2023/09/15 05:51:09;;;;;;;10.40;4.70;;;11.30;99.90;;;;;;5072637;28;20751;-72
2023/09/15 05:53:35;;;;;;;8.27;4.20;;;11.40;99.90;;;;;;5071350;28;20132;-73
2023/09/15 05:56:02;;;;;;;8.40;4.50;;;11.40;99.90;;;;;;5072642;28;20097;-72
2023/09/15 05:58:28;;;;;;;10.33;4.70;;;11.40;99.90;;;;;;5071497;28;20060;-72
2023/09/15 06:00:55;;;;;;;12.37;4.50;;;11.40;99.90;;;;;;5071426;28;20299;-72
2023/09/15 06:03:25;;;;;;;13.33;5.37;;;11.50;99.90;;;;;;5072311;28;20058;-75
2023/09/15 06:05:51;;;;;;;14.63;5.30;;;11.50;99.90;;;;;;5072642;28;20351;-72
2023/09/15 06:08:21;;;;;;;16.63;4.93;;;11.50;99.90;;;;;;5072519;28;20354;-73
2023/09/15 06:10:47;;;;;;;11.77;4.53;;;11.50;99.90;;;;;;5072475;28;20283;-72
2023/09/15 06:13:14;;;;;;;9.63;4.40;;;11.60;99.90;;;;;;5072490;28;20279;-72
2023/09/15 06:15:40;;;;;;;10.03;4.57;;;11.60;99.90;;;;;;5071067;28;20282;-72
2023/09/15 06:18:06;;;;;;;9.57;4.30;;;11.70;99.90;;;;;;5054666;28;20743;-72
2023/09/15 06:20:33;;;;;;;11.07;4.90;;;11.80;99.90;;;;;;5070879;28;20305;-73
2023/09/15 06:23:02;;;;;;;11.13;5.10;;;11.90;99.90;;;;;;5054342;28;20063;-72
2023/09/15 06:25:30;;;;;;;10.80;4.27;;;11.90;99.90;;;;;;5071088;28;20453;-72
2023/09/15 06:27:57;;;;;;;12.03;4.10;;;11.90;99.90;;;;;;5071205;28;20412;-72
2023/09/15 06:30:22;;;;;;;10.17;4.23;;;11.90;99.90;;;;;;5071149;28;20318;-72
2023/09/15 06:32:48;;;;;;;9.07;4.63;;;12.00;99.90;;;;;;5071761;28;20770;-72
2023/09/15 06:35:14;;;;;;;8.30;4.63;;;12.10;99.90;;;;;;5071342;28;20049;-72
2023/09/15 06:37:42;;;;;;;9.07;4.33;;;12.10;99.90;;;;;;5072031;28;20049;-72
2023/09/15 06:40:10;;;;;;;11.30;4.37;;;12.30;99.90;;;;;;5072181;28;20048;-72
2023/09/15 06:42:36;;;;;;;8.77;4.40;;;12.90;99.90;;;;;;5070874;28;20830;-72
2023/09/15 06:45:03;;;;;;;8.07;4.00;;;14.10;99.90;;;;;;5072478;28;20393;-72
2023/09/15 06:47:29;;;;;;;7.20;3.77;;;15.30;99.90;;;;;;5071880;28;20061;-73
2023/09/15 06:49:58;;;;;;;9.30;3.67;;;16.50;99.90;;;;;;5072199;28;20361;-72
2023/09/15 06:52:24;;;;;;;8.43;3.33;;;17.50;99.90;;;;;;5070940;28;20103;-72
2023/09/15 06:54:49;;;;;;;6.77;3.70;;;18.30;99.90;;;;;;5071933;28;20045;-72
2023/09/15 06:57:15;;;;;;;7.90;3.40;;;19.10;99.90;;;;;;5071032;28;20400;-73
2023/09/15 06:59:41;;;;;;;10.37;4.17;;;19.70;99.90;;;;;;5072484;28;20408;-73
2023/09/15 07:02:07;;;;;;;6.33;3.20;;;20.20;99.90;;;;;;5074436;28;20048;-73
2023/09/15 07:04:32;;;;;;;9.30;3.40;;;20.30;99.90;;;;;;5075496;28;20048;-73
2023/09/15 07:06:58;;;;;;;8.60;3.57;;;20.80;99.90;;;;;;5075679;28;20126;-73
2023/09/15 07:09:24;;;;;;;7.40;3.23;;;21.10;99.90;;;;;;5074872;28;20040;-73
2023/09/15 07:11:50;;;;;;;7.97;3.60;;;21.70;99.90;;;;;;5074168;28;20045;-72
2023/09/15 07:14:16;;;;;;;8.53;3.20;;;22.20;99.90;;;;;;5075577;28;20060;-73
2023/09/15 07:16:43;;;;;;;5.53;2.80;;;22.50;99.90;;;;;;5075271;28;20044;-73
2023/09/15 07:19:10;;;;;;;8.07;3.60;;;22.50;95.10;;;;;;5075441;28;20055;-73
2023/09/15 07:21:41;;;;;;;6.40;3.17;;;22.50;99.90;;;;;;5075078;28;20050;-74
2023/09/15 07:24:07;;;;;;;8.87;3.10;;;22.70;99.90;;;;;;5075794;28;20074;-73
2023/09/15 07:26:33;;;;;;;7.67;3.63;;;23.00;99.90;;;;;;5075095;28;20052;-73
2023/09/15 07:28:59;;;;;;;9.50;3.17;;;23.20;99.90;;;;;;5075429;28;20048;-73
2023/09/15 07:31:25;;;;;;;6.70;3.10;;;23.40;99.70;;;;;;5075287;28;20442;-73
2023/09/15 07:33:50;;;;;;;9.30;3.40;;;23.70;99.20;;;;;;5074987;28;20048;-74
2023/09/15 07:36:16;;;;;;;6.03;2.70;;;23.60;98.20;;;;;;5075009;28;20048;-74
2023/09/15 07:38:42;;;;;;;8.23;3.53;;;23.10;98.30;;;;;;5073977;28;20469;-74
2023/09/15 07:41:07;;;;;;;9.93;3.00;;;22.10;95.80;;;;;;5075132;28;20049;-74
2023/09/15 07:43:33;;;;;;;9.57;3.00;;;21.40;99.10;;;;;;5074920;28;20056;-76
2023/09/15 07:45:59;;;;;;;7.27;3.30;;;20.70;99.50;;;;;;5074752;28;20114;-74
2023/09/15 07:48:24;;;;;;;7.00;3.20;;;20.10;99.90;;;;;;5074624;28;20099;-73
2023/09/15 07:50:50;;;;;;;7.97;3.20;;;19.60;99.90;;;;;;5073530;28;20075;-74
2023/09/15 07:53:16;;;;;;;6.70;3.00;;;19.20;99.90;;;;;;5075021;28;20106;-74
2023/09/15 07:55:42;;;;;;;7.87;3.40;;;18.90;99.90;;;;;;5074553;28;20044;-73
2023/09/15 07:58:08;;;;;;;6.03;2.93;;;18.60;99.90;;;;;;5074863;28;20110;-74
2023/09/15 08:00:33;;;;;;;8.47;2.97;;;18.40;99.90;;;;;;5074662;28;20115;-73
2023/09/15 08:02:59;;;;;;;7.30;3.03;;;18.20;99.90;;;;;;5056811;28;20423;-74
2023/09/15 08:05:25;;;;;;;12.57;3.90;;;18.10;99.90;;;;;;5056791;28;20090;-73
2023/09/15 08:07:51;;;;;;;7.90;3.50;;;18.00;99.90;;;;;;5056704;28;20051;-74
2023/09/15 08:10:22;;;;;;;6.63;3.40;;;17.80;99.90;;;;;;5056482;28;20059;-74
2023/09/15 08:12:52;;;;;;;6.53;3.27;;;17.80;99.90;;;;;;5073004;28;20044;-75
2023/09/15 08:15:22;;;;;;;8.40;3.60;;;17.70;99.90;;;;;;5074624;28;20055;-75
2023/09/15 08:17:48;;;;;;;7.00;3.37;;;17.70;99.90;;;;;;5073176;28;20098;-75
2023/09/15 08:20:14;;;;;;;8.00;3.23;;;17.70;99.90;;;;;;5073994;28;20476;-74
2023/09/15 08:22:41;;;;;;;7.47;3.13;;;17.70;99.90;;;;;;5072995;28;20055;-75
2023/09/15 08:25:08;;;;;;;8.93;3.60;;;17.60;99.90;;;;;;5056616;28;20492;-75
2023/09/15 08:27:34;;;;;;;12.00;4.33;;;17.50;99.90;;;;;;5056637;28;20040;-74
2023/09/15 08:30:01;;;;;;;7.87;3.77;;;17.50;99.90;;;;;;5072681;28;20143;-74
2023/09/15 08:32:27;;;;;;;6.67;3.40;;;17.50;99.90;;;;;;5073106;28;20074;-74
2023/09/15 08:34:53;;;;;;;7.27;3.50;;;17.50;99.90;;;;;;5072910;28;20063;-75
2023/09/15 08:37:19;;;;;;;7.07;3.43;;;17.50;99.90;;;;;;5074011;28;20114;-74
2023/09/15 08:39:46;;;;;;;10.20;4.13;;;17.50;99.90;;;;;;5072578;28;20102;-74
2023/09/15 08:42:26;;;;;;;6.83;3.53;;;17.50;99.90;;;;;;5073846;28;20048;-73
2023/09/15 08:44:53;;;;;;;9.33;3.33;;;17.50;99.90;;;;;;5072649;28;20098;-74
2023/09/15 08:47:20;;;;;;;8.13;3.73;;;17.50;99.90;;;;;;5072493;28;20049;-73
2023/09/15 08:49:48;;;;;;;9.47;3.00;;;17.50;99.90;;;;;;5073425;28;20052;-75
2023/09/15 08:52:17;;;;;;;6.87;3.50;;;17.50;99.90;;;;;;5072721;28;20045;-75
2023/09/15 08:54:45;;;;;;;9.50;3.67;;;17.60;99.90;;;;;;5072229;28;20084;-75
2023/09/15 08:57:11;;;;;;;6.87;3.50;;;17.60;99.90;;;;;;5072630;28;20091;-74
2023/09/15 08:59:38;;;;;;;10.57;3.77;;;17.60;99.90;;;;;;5072441;28;20053;-73
2023/09/15 09:02:04;;;;;;;9.23;4.13;;;17.60;99.90;;;;;;5072056;28;20044;-73
2023/09/15 09:04:30;;;;;;;10.10;3.50;;;17.60;99.90;;;;;;5072324;28;20102;-73
2023/09/15 09:06:59;;;;;;;10.07;3.43;;;17.70;99.90;;;;;;5072101;28;20431;-72
2023/09/15 09:09:25;;;;;;;8.90;3.40;;;17.80;99.90;;;;;;5072358;28;20469;-72
2023/09/15 09:11:51;;;;;;;8.30;4.20;;;17.80;99.90;;;;;;5073053;28;20048;-73
2023/09/15 09:14:17;;;;;;;7.60;3.87;;;17.80;99.90;;;;;;5072072;28;20047;-72
2023/09/15 09:16:43;;;;;;;6.53;3.77;;;17.90;99.90;;;;;;5055625;28;20056;-72
2023/09/15 09:19:10;;;;;;;7.40;4.13;;;17.90;99.90;;;;;;5071916;28;20511;-72
2023/09/15 09:21:36;;;;;;;9.43;4.03;;;17.90;99.90;;;;;;5072772;28;20052;-72
2023/09/15 09:24:02;;;;;;;8.03;3.80;;;17.90;99.90;;;;;;5071164;28;20480;-73
2023/09/15 09:26:28;;;;;;;7.23;3.73;;;17.90;99.90;;;;;;5073244;28;20040;-73
2023/09/15 09:28:57;;;;;;;8.73;4.20;;;18.00;99.90;;;;;;5055171;28;20542;-73
2023/09/15 09:31:24;;;;;;;9.20;4.43;;;18.10;99.90;;;;;;5072051;28;20500;-72
2023/09/15 09:33:54;;;;;;;10.30;4.83;;;18.10;99.90;;;;;;5072327;28;20079;-72
2023/09/15 09:36:20;;;;;;;10.40;4.90;;;18.10;99.90;;;;;;5071788;28;20485;-71
2023/09/15 09:38:51;;;;;;;13.53;5.50;;;18.20;99.90;;;;;;5072725;28;20097;-71
2023/09/15 09:41:19;;;;;;;9.33;4.60;;;18.20;99.90;;;;;;5072861;28;20106;-70
2023/09/15 09:43:47;;;;;;;11.00;5.50;;;18.20;99.90;;;;;;5072902;28;20044;-70
2023/09/15 09:46:20;;;;;;;11.13;5.33;;;18.30;99.90;;;;;;5072417;28;20102;-70
2023/09/15 09:48:47;;;;;;;9.37;5.00;;;18.30;99.90;;;;;;5072903;28;20053;-71
2023/09/15 09:51:13;;;;;;;10.13;5.93;;;18.30;99.90;;;;;;5072480;28;20102;-70
2023/09/15 09:53:40;;;;;;;9.53;5.57;;;18.30;99.90;;;;;;5072808;28;20048;-69
2023/09/15 09:56:06;;;;;;;10.37;5.93;;;18.40;99.90;;;;;;5072461;28;20087;-70
2023/09/15 09:58:33;;;;;;;9.23;5.80;;;18.40;99.90;;;;;;5072801;28;20055;-71
2023/09/15 10:00:59;;;;;;;9.77;4.70;;;18.40;99.90;;;;;;5072438;28;20397;-71
2023/09/15 10:03:25;;;;;;;9.87;5.23;;;18.40;99.90;;;;;;5072845;28;20044;-70
2023/09/15 10:05:52;;;;;;;9.40;5.27;;;18.40;99.90;;;;;;5072586;28;20067;-75
2023/09/15 10:08:18;;;;;;;8.43;5.30;;;18.40;99.90;;;;;;5072544;28;20041;-72
2023/09/15 10:10:46;;;;;;;11.13;6.30;;;18.40;99.90;;;;;;5072635;28;20044;-72
2023/09/15 10:13:16;;;;;;;9.73;5.30;;;18.50;99.90;;;;;;5070727;28;20620;-73
2023/09/15 10:15:43;;;;;;;8.30;4.77;;;18.50;99.90;;;;;;5054599;28;20037;-72
2023/09/15 10:18:12;;;;;;;11.77;4.57;;;18.50;99.90;;;;;;5054588;28;20165;-73
2023/09/15 10:20:43;;;;;;;8.40;4.60;;;18.50;99.90;;;;;;5072369;28;20093;-73
2023/09/15 10:23:12;;;;;;;10.53;5.27;;;18.60;99.90;;;;;;5071301;28;20421;-73
2023/09/15 10:25:42;;;;;;;9.43;4.20;;;18.60;99.90;;;;;;5072492;28;20144;-70
2023/09/15 10:28:11;;;;;;;8.03;4.77;;;18.70;99.90;;;;;;5072126;28;20078;-71
2023/09/15 10:30:38;;;;;;;7.03;3.90;;;18.70;99.90;;;;;;5071395;28;20166;-71
2023/09/15 10:33:07;;;;;;;10.10;4.67;;;18.70;99.90;;;;;;5072144;28;20048;-69
2023/09/15 10:35:33;;;;;;;9.67;4.30;;;18.70;99.90;;;;;;5076043;28;20056;-72
2023/09/15 10:38:05;;;;;;;9.57;3.83;;;18.70;99.90;;;;;;5074835;28;20040;-72
2023/09/15 10:40:48;;;;;;;6.50;3.67;;;18.70;99.90;;;;;;5073538;28;20091;-72
2023/09/15 10:43:19;;;;;;;8.93;4.00;;;18.80;99.90;;;;;;5073673;28;20131;-73
2023/09/15 10:45:59;;;;;;;6.63;3.40;;;18.70;99.90;;;;;;5075830;28;20045;-73
2023/09/15 10:48:37;;;;;;;8.00;3.30;;;18.80;99.90;;;;;;5075737;28;20088;-73
2023/09/15 10:51:07;;;;;;;8.77;4.03;;;18.80;99.90;;;;;;5075922;28;20150;-72
2023/09/15 10:53:45;;;;;;;11.17;4.10;;;18.80;99.90;;;;;;5075056;28;20198;-72
2023/09/15 10:56:13;;;;;;;9.40;3.90;;;18.70;99.90;;;;;;5074862;28;20392;-72
2023/09/15 10:58:40;;;;;;;8.07;3.50;;;18.70;99.90;;;;;;5076171;28;20369;-72
2023/09/15 11:01:06;;;;;;;8.43;3.40;;;18.70;99.90;;;;;;5074476;28;20511;-73
2023/09/15 11:03:33;;;;;;;7.40;3.30;;;18.80;99.90;;;;;;5058199;28;20048;-72
2023/09/15 11:06:01;;;;;;;5.97;2.30;;;18.90;99.90;;;;;;5075532;28;20049;-73
2023/09/15 11:08:27;;;;;;;6.60;2.73;;;18.90;99.90;;;;;;5074796;28;20079;-72
2023/09/15 11:11:00;;;;;;;7.43;2.80;;;19.00;99.90;;;;;;5058335;28;20433;-72
2023/09/15 11:13:25;;;;;;;7.87;3.00;;;18.90;99.90;;;;;;5074955;28;20155;-72
2023/09/15 11:15:51;;;;;;;7.97;3.00;;;18.90;99.90;;;;;;5075637;28;20044;-72
2023/09/15 11:18:18;;;;;;;8.20;2.70;;;18.90;99.90;;;;;;5074069;28;20056;-72
2023/09/15 11:20:44;;;;;;;7.37;2.77;;;18.90;99.90;;;;;;5075430;28;20041;-72
2023/09/15 11:23:10;;;;;;;6.07;2.77;;;19.00;99.90;;;;;;5075243;28;20044;-72
2023/09/15 11:25:36;;;;;;;8.57;3.03;;;19.00;99.90;;;;;;5075413;28;20045;-72
2023/09/15 11:28:02;;;;;;;7.13;2.80;;;19.10;99.90;;;;;;5075123;28;20500;-72
2023/09/15 11:30:29;;;;;;;8.70;3.03;;;19.10;99.90;;;;;;5057637;28;20131;-72
2023/09/15 11:32:57;;;;;;;7.20;2.70;;;19.20;99.90;;;;;;5074402;28;20072;-72
2023/09/15 11:35:27;;;;;;;8.00;2.83;;;19.20;99.90;;;;;;5074971;28;20089;-73
2023/09/15 11:37:53;;;;;;;10.70;3.47;;;19.10;99.90;;;;;;5075147;28;20400;-73
2023/09/15 11:40:23;;;;;;;6.23;2.73;;;19.10;99.90;;;;;;5073803;28;20052;-73
2023/09/15 11:42:53;;;;;;;6.13;2.63;;;19.10;99.90;;;;;;5074117;28;20392;-73
2023/09/15 11:45:20;;;;;;;6.33;2.50;;;19.10;99.90;;;;;;5073166;28;20052;-73
2023/09/15 11:47:46;;;;;;;7.87;2.97;;;19.10;99.90;;;;;;5073527;28;20117;-72
2023/09/15 11:50:13;;;;;;;9.40;2.47;;;19.00;99.90;;;;;;5073527;28;20051;-73
2023/09/15 11:52:40;;;;;;;8.70;2.80;;;19.10;99.90;;;;;;5073933;28;20081;-73
2023/09/15 11:55:22;;;;;;;6.73;3.00;;;19.20;99.90;;;;;;5074704;28;20044;-73
2023/09/15 11:57:52;;;;;;;8.33;3.03;;;19.20;99.90;;;;;;5074212;28;20060;-73
2023/09/15 12:00:23;;;;;;;6.83;2.93;;;19.20;99.90;;;;;;5073591;28;20121;-73
2023/09/15 12:02:52;;;;;;;7.93;2.63;;;19.20;99.90;;;;;;5073656;28;20045;-73
2023/09/15 12:05:20;;;;;;;7.90;2.93;;;19.30;99.90;;;;;;5073518;28;20449;-73
2023/09/15 12:07:47;;;;;;;7.03;2.70;;;19.30;99.90;;;;;;5073424;28;20052;-73
2023/09/15 12:10:18;;;;;;;6.40;2.60;;;19.40;99.90;;;;;;5073130;28;20044;-73
2023/09/15 12:12:45;;;;;;;6.07;2.20;;;19.40;99.90;;;;;;5073549;28;20054;-73
2023/09/15 12:15:16;;;;;;;7.67;2.80;;;19.30;99.90;;;;;;5074352;28;20408;-73
2023/09/15 12:17:45;;;;;;;8.53;2.50;;;19.30;99.90;;;;;;5073791;28;20080;-73
2023/09/15 12:20:12;;;;;;;8.10;2.83;;;19.30;99.90;;;;;;5074138;28;20384;-72
2023/09/15 12:22:40;;;;;;;8.13;3.13;;;19.20;99.90;;;;;;5073277;28;20048;-72
2023/09/15 12:25:07;;;;;;;6.13;3.00;;;19.20;99.90;;;;;;5074019;28;20044;-73
2023/09/15 12:27:32;;;;;;;6.83;2.57;;;19.30;99.90;;;;;;5074203;28;20044;-73
2023/09/15 12:30:03;;;;;;;7.33;2.97;;;19.30;99.90;;;;;;5072721;28;20113;-73
2023/09/15 12:32:34;;;;;;;6.83;2.80;;;19.40;99.90;;;;;;5072871;28;20120;-73
2023/09/15 12:35:04;;;;;;;8.97;3.50;;;19.50;99.90;;;;;;5073063;28;20049;-73
2023/09/15 12:37:32;;;;;;;6.20;3.13;;;19.50;99.90;;;;;;5072882;28;20128;-73
2023/09/15 12:39:58;;;;;;;7.80;3.17;;;19.50;99.90;;;;;;5072953;28;20041;-73
2023/09/15 12:42:24;;;;;;;8.50;3.00;;;19.50;99.90;;;;;;5072483;28;20040;-73
2023/09/15 12:44:49;;;;;;;7.87;3.03;;;19.50;99.90;;;;;;5074227;28;20097;-72